Flight Track Log - Related Links

Times and Time Zones

All times are in EDT time to prevent confusion due to time zone crossing. See the UAL5862 flight status page for this flight to view local times or setup timezone preferences in your user account.

Time Position Orientation Groundspeed Altitude Reporting Facility
EDT Latitude Longitude Course Direction KTS MPH feet Rate Location/Type
Wed 08:15:50 PM 36.1000 -86.6833 248° West 168 193 1,400  Level Nashville TRACON
Wed 08:16:32 PM 36.0833 -86.7333 248° West 206 237 2,700 2,176 Climbing Nashville TRACON
Wed 08:17:32 PM 36.1000 -86.8000 287° West 264 304 5,100 2,300 Climbing Nashville TRACON
Wed 08:18:32 PM 36.1667 -86.7833 11° North 273 314 7,300 2,211 Climbing Nashville TRACON
Wed 08:19:45 PM 36.2492 -86.7231 31° Northeast 304 350 10,000 1,805 Climbing Memphis Center
Wed 08:20:45 PM 36.3186 -86.6711 31° Northeast 290 334 11,300 1,100 Climbing Memphis Center
Wed 08:21:45 PM 36.3958 -86.6108 32° Northeast 305 351 12,200 1,150 Climbing Memphis Center
Wed 08:22:45 PM 36.4814 -86.5475 31° Northeast 342 394 13,600 1,425 Climbing Memphis Center
Wed 08:24:00 PM 36.5642 -86.4679 22° Northeast  Level FlightAware Approximate
Wed 08:25:45 PM 36.7517 -86.3872 20° North 356 410 17,900  Level Memphis Center
Wed 08:28:05 PM 36.9664 -86.2794 22° Northeast 383 441 20,400 1,069 Climbing Indianapolis Center
Wed 08:29:07 PM 37.0694 -86.2275 22° Northeast 393 452 21,500 1,122 Climbing Indianapolis Center
Wed 08:30:08 PM 37.1903 -86.1661 22° Northeast 398 458 22,700 1,122 Climbing Indianapolis Center
Wed 08:31:00 PM 37.0758 -86.2201 20° North  Level FlightAware Approximate
Wed 08:31:10 PM 37.2947 -86.1086 24° Northeast 404 465 23,800  Level Indianapolis Center
Wed 08:32:11 PM 37.3956 -86.0408 28° Northeast 406 467 24,800 1,073 Climbing Indianapolis Center
Wed 08:33:13 PM 37.4967 -85.9756 27° Northeast 406 467 26,000 1,171 Climbing Indianapolis Center
Wed 08:34:14 PM 37.5844 -85.9181 27° Northeast 402 463 27,200 1,317 Climbing Indianapolis Center
Wed 08:35:16 PM 37.7003 -85.8422 27° Northeast 395 455 28,700 1,220 Climbing Indianapolis Center
Wed 08:36:17 PM 37.7947 -85.7800 27° Northeast 389 448 29,700 634 Climbing Indianapolis Center
Wed 08:37:19 PM 37.8919 -85.7167 27° Northeast 389 448 30,000 146 Climbing Indianapolis Center
Wed 08:38:20 PM 37.9953 -85.6486 27° Northeast 406 467 30,000 341 Level Indianapolis Center
Wed 08:39:22 PM 38.1083 -85.5833 24° Northeast 439 505 30,700 829 Climbing Indianapolis Center
Wed 08:40:23 PM 38.2264 -85.5814 North 426 490 31,700 1,024 Climbing Indianapolis Center
Wed 08:41:25 PM 38.3447 -85.5864 358° North 424 488 32,800 1,073 Climbing Indianapolis Center
Wed 08:42:26 PM 38.4633 -85.5925 358° North 426 490 33,900 585 Climbing Indianapolis Center
Wed 08:43:28 PM 38.5806 -85.5961 359° North 424 488 34,000 -293 Climbing Indianapolis Center
Wed 08:44:29 PM 38.7275 -85.6031 358° North 436 502 33,300 -829 Descending Indianapolis Center
Wed 08:45:31 PM 38.8450 -85.6081 358° North 423 487 32,300 -976 Descending Indianapolis Center
Wed 08:46:32 PM 38.9594 -85.6128 358° North 411 473 31,300 -976 Descending Indianapolis Center
Wed 08:47:34 PM 39.0728 -85.6169 358° North 407 468 30,300 -976 Descending Indianapolis Center
Wed 08:48:35 PM 39.1856 -85.6219 358° North 404 465 29,300 -984 Descending Indianapolis Center
Wed 08:49:36 PM 39.3061 -85.6275 358° North 426 490 28,300 -634 Descending Indianapolis Center
Wed 08:50:38 PM 39.4244 -85.6319 358° North 425 489 28,000 -293 Descending Indianapolis Center
Wed 08:51:39 PM 39.5428 -85.6375 358° North 425 489 27,700 -738 Descending Indianapolis Center
Wed 08:52:40 PM 39.6886 -85.6428 358° North 445 512 26,500 -829 Descending Indianapolis Center
Wed 08:53:42 PM 39.8183 -85.6492 358° North 463 533 26,000 -244 Descending Indianapolis Center
Wed 08:54:43 PM 39.9469 -85.6542 358° North 462 532 26,000  Level Indianapolis Center
Wed 08:55:44 PM 40.0742 -85.6608 358° North 458 527 26,000  Level Indianapolis Center
Wed 08:56:20 PM 40.1392 -85.6628 359° North 464 534 26,000  Level Chicago Center
Wed 08:57:22 PM 40.2931 -85.6689 358° North 470 541 26,000  Level Chicago Center
Wed 08:58:24 PM 40.4211 -85.7078 347° North 478 550 26,000  Level Chicago Center
Wed 08:59:26 PM 40.5128 -85.8281 315° West 467 537 26,000 -189 Level Chicago Center
Wed 09:00:31 PM 40.5972 -85.9597 310° West 469 540 25,600 -661 Descending Chicago Center
Wed 09:01:33 PM 40.6786 -86.0908 309° West 464 534 24,600 -1,065 Descending Chicago Center
Wed 09:02:35 PM 40.7672 -86.2328 310° West 451 519 23,400 -1,065 Descending Chicago Center
Wed 09:03:37 PM 40.8481 -86.3603 310° West 452 520 22,400 -677 Descending Chicago Center
Wed 09:04:39 PM 40.9261 -86.4858 309° West 443 510 22,000 -293 Descending Chicago Center
Wed 09:05:40 PM 41.0033 -86.6086 310° West 436 502 21,800 -1,268 Descending Chicago Center
Wed 09:06:42 PM 41.0911 -86.7492 310° West 436 502 19,400 -2,274 Descending Chicago Center
Wed 09:07:44 PM 41.1628 -86.8639 310° West 411 473 17,100 -2,323 Descending Chicago Center
Wed 09:08:46 PM 41.2342 -86.9789 310° West 407 468 14,600 -2,177 Descending Chicago Center
Wed 09:09:48 PM 41.3017 -87.0903 309° West 393 452 12,600 -1,728 Descending Chicago Center
Wed 09:10:51 PM 41.3842 -87.2172 311° West 382 440 11,000 -882 Descending Chicago Center
Wed 09:11:30 PM 41.4333 -87.2833 315° West 366 421 11,100  Climbing Chicago TRACON
Wed 09:12:24 PM 41.5000 -87.3667 317° Northwest 365 420 11,000 -71 Descending Chicago TRACON
Wed 09:12:54 PM 41.5350 -87.3928 331° Northwest 362 417 11,000 -396 Level Chicago Center
Wed 09:13:55 PM 41.5986 -87.4639 320° Northwest 308 354 10,400 -1,122 Descending Chicago Center
Wed 09:14:57 PM 41.6608 -87.5344 320° Northwest 298 343 8,700 -1,597 Descending Chicago Center
Wed 09:15:59 PM 41.7342 -87.6169 320° Northwest 292 336 7,100 -1,097 Descending Chicago Center
Wed 09:16:30 PM 41.7667 -87.6500 323° Northwest 289 333 7,000 -66 Descending Chicago TRACON
Wed 09:17:30 PM 41.8500 -87.6667 352° North 256 295 7,000  Level Chicago TRACON
Wed 09:18:25 PM 41.9000 -87.6667 360° North 253 291 7,000  Level Chicago TRACON
Wed 09:19:31 PM 41.9833 -87.6833 352° North 251 289 7,000 -364 Level Chicago TRACON
Wed 09:20:37 PM 42.0500 -87.6667 11° North 253 291 6,200 -955 Descending Chicago TRACON
Wed 09:21:43 PM 42.1167 -87.6333 20° North 237 273 4,900 -1,226 Descending Chicago TRACON
Wed 09:22:10 PM 42.1356 -87.6589 315° West 231 266 4,300 -614 Descending Chicago Center
Wed 09:23:11 PM 42.1394 -87.7194 275° West 199 229 4,000 -390 Descending Chicago Center
Wed 09:24:13 PM 42.1081 -87.7778 234° Southwest 192 221 3,500 -628 Descending Chicago Center
Wed 09:24:37 PM 42.0833 -87.8000 214° Southwest 190 219 3,100 -1,077 Descending Chicago TRACON
Wed 09:25:31 PM 42.0500 -87.8333 217° Southwest 168 193 2,100 -900 Descending Chicago TRACON
Wed 09:26:37 PM 42.0167 -87.8667 217° Southwest 125 144 1,300 -727 Descending Chicago TRACON
Wed 09:29:00 PM 41.9817 -87.9067 312° West  Level Estimated

Login

Don't have an account? Register now (free) for customized features, flight alerts, and more!